Time,TemperatureF,DewpointF,PressureIn,WindDirection,WindDirectionDegrees,WindSpeedMPH,WindSpeedGustMPH,Humidity,HourlyPrecipIn,Conditions,Clouds,dailyrainin,SoftwareType,DateUTC
2013-04-16 00:10:00,40.7,31.0,30.25,SSW,197,4.0,11.0,69,0.00,,,0.00,weatherlink.com 1.10,2013-04-16 04:10:00,
2013-04-16 00:25:00,40.7,32.0,30.25,ESE,122,5.0,13.0,70,0.00,,,0.00,weatherlink.com 1.10,2013-04-16 04:25:00,
2013-04-16 00:40:00,40.7,31.0,30.25,SE,124,4.0,10.0,69,0.00,,,0.00,weatherlink.com 1.10,2013-04-16 04:40:00,
2013-04-16 00:55:00,40.7,31.0,30.25,SSE,166,2.0,10.0,68,0.00,,,0.00,weatherlink.com 1.10,2013-04-16 04:55:00,
2013-04-16 01:10:00,40.5,30.0,30.25,SSW,193,4.0,12.0,67,0.00,,,0.00,weatherlink.com 1.10,2013-04-16 05:10:00,
2013-04-16 01:25:00,40.4,30.0,30.26,South,173,8.0,10.0,66,0.00,,,0.00,weatherlink.com 1.10,2013-04-16 05:25:00,
2013-04-16 01:40:00,40.2,30.0,30.25,SSW,201,1.0,8.0,66,0.00,,,0.00,weatherlink.com 1.10,2013-04-16 05:40:00,
2013-04-16 01:55:00,40.4,30.0,30.25,SSE,161,8.0,13.0,66,0.00,,,0.00,weatherlink.com 1.10,2013-04-16 05:55:00,
2013-04-16 02:10:00,40.5,29.0,30.24,SW,224,1.0,11.0,65,0.00,,,0.00,weatherlink.com 1.10,2013-04-16 06:10:00,
2013-04-16 02:25:00,40.8,30.0,30.24,East,84,3.0,11.0,66,0.00,,,0.00,weatherlink.com 1.10,2013-04-16 06:25:00,
2013-04-16 02:40:00,40.6,30.0,30.24,SE,134,2.0,10.0,66,0.00,,,0.00,weatherlink.com 1.10,2013-04-16 06:40:00,
2013-04-16 02:55:00,40.5,31.0,30.23,South,190,5.0,12.0,68,0.00,,,0.00,weatherlink.com 1.10,2013-04-16 06:55:00,
2013-04-16 03:10:00,41.3,31.0,30.24,South,174,4.0,14.0,68,0.00,,,0.00,weatherlink.com 1.10,2013-04-16 07:10:00,
2013-04-16 03:25:00,41.5,32.0,30.23,SW,216,4.0,12.0,69,0.00,,,0.00,weatherlink.com 1.10,2013-04-16 07:25:00,
2013-04-16 03:40:00,41.3,31.0,30.23,SSE,163,3.0,11.0,68,0.00,,,0.00,weatherlink.com 1.10,2013-04-16 07:40:00,
2013-04-16 03:55:00,40.8,32.0,30.24,SSW,200,11.0,11.0,72,0.00,,,0.00,weatherlink.com 1.10,2013-04-16 07:55:00,
2013-04-16 04:10:00,40.7,33.0,30.24,SSE,167,3.0,10.0,75,0.00,,,0.00,weatherlink.com 1.10,2013-04-16 08:10:00,
2013-04-16 04:25:00,41.0,34.0,30.23,South,178,9.0,11.0,76,0.00,,,0.00,weatherlink.com 1.10,2013-04-16 08:25:00,
2013-04-16 04:40:00,40.8,34.0,30.23,SSW,212,4.0,8.0,76,0.00,,,0.00,weatherlink.com 1.10,2013-04-16 08:40:00,
2013-04-16 04:55:00,40.2,34.0,30.22,SSW,198,4.0,8.0,79,0.00,,,0.00,weatherlink.com 1.10,2013-04-16 08:55:00,
2013-04-16 05:10:00,40.6,35.0,30.22,SSW,201,3.0,9.0,79,0.00,,,0.00,weatherlink.com 1.10,2013-04-16 09:10:00,
2013-04-16 05:25:00,40.6,35.0,30.21,SSW,200,7.0,8.0,80,0.00,,,0.00,weatherlink.com 1.10,2013-04-16 09:25:00,
2013-04-16 05:40:00,40.6,35.0,30.21,SE,129,2.0,8.0,81,0.00,,,0.00,weatherlink.com 1.10,2013-04-16 09:40:00,
2013-04-16 05:55:00,40.6,36.0,30.21,SSE,161,4.0,7.0,82,0.00,,,0.00,weatherlink.com 1.10,2013-04-16 09:55:00,
2013-04-16 06:10:00,40.2,35.0,30.21,SSW,192,3.0,8.0,83,0.00,,,0.00,weatherlink.com 1.10,2013-04-16 10:10:00,
2013-04-16 06:25:00,40.9,36.0,30.21,SSW,209,2.0,8.0,83,0.00,,,0.00,weatherlink.com 1.10,2013-04-16 10:25:00,
2013-04-16 06:40:00,41.9,37.0,30.22,SSW,194,2.0,8.0,82,0.00,,,0.00,weatherlink.com 1.10,2013-04-16 10:40:00,
2013-04-16 06:55:00,43.1,37.0,30.22,South,189,4.0,11.0,80,0.00,,,0.00,weatherlink.com 1.10,2013-04-16 10:55:00,
2013-04-16 07:10:00,43.7,38.0,30.21,SSE,163,1.0,10.0,79,0.00,,,0.00,weatherlink.com 1.10,2013-04-16 11:10:00,
2013-04-16 07:25:00,44.2,39.0,30.22,SSW,195,4.0,13.0,81,0.00,,,0.00,weatherlink.com 1.10,2013-04-16 11:25:00,
2013-04-16 07:40:00,44.2,38.0,30.22,South,171,3.0,14.0,80,0.00,,,0.00,weatherlink.com 1.10,2013-04-16 11:40:00,
2013-04-16 07:55:00,44.4,39.0,30.22,SSE,155,5.0,11.0,80,0.00,,,0.00,weatherlink.com 1.10,2013-04-16 11:55:00,
2013-04-16 08:10:00,44.6,39.0,30.21,South,175,5.0,16.0,81,0.00,,,0.00,weatherlink.com 1.10,2013-04-16 12:10:00,
2013-04-16 08:25:00,44.2,39.0,30.21,South,171,4.0,17.0,83,0.00,,,0.00,weatherlink.com 1.10,2013-04-16 12:25:00,
2013-04-16 08:40:00,44.1,40.0,30.21,South,189,7.0,9.0,84,0.00,,,0.00,weatherlink.com 1.10,2013-04-16 12:40:00,
2013-04-16 08:55:00,44.6,40.0,30.21,South,189,3.0,9.0,85,0.00,,,0.00,weatherlink.com 1.10,2013-04-16 12:55:00,
2013-04-16 09:10:00,45.7,42.0,30.21,South,170,8.0,11.0,86,0.00,,,0.00,weatherlink.com 1.10,2013-04-16 13:10:00,
2013-04-16 09:25:00,45.6,42.0,30.21,East,92,2.0,10.0,86,0.00,,,0.00,weatherlink.com 1.10,2013-04-16 13:25:00,
2013-04-16 09:40:00,45.2,42.0,30.21,SSW,202,4.0,9.0,88,0.00,,,0.00,weatherlink.com 1.10,2013-04-16 13:40:00,
2013-04-16 09:56:00,45.4,42.0,30.21,WSW,248,5.0,8.0,89,0.00,,,0.00,weatherlink.com 1.10,2013-04-16 13:56:00,
2013-04-16 10:11:00,45.8,43.0,30.20,SSW,198,5.0,8.0,90,0.00,,,0.00,weatherlink.com 1.10,2013-04-16 14:11:00,
2013-04-16 10:26:00,46.5,44.0,30.19,SE,133,2.0,11.0,89,0.00,,,0.00,weatherlink.com 1.10,2013-04-16 14:26:00,
2013-04-16 10:41:00,47.0,44.0,30.18,South,183,1.0,7.0,88,0.00,,,0.00,weatherlink.com 1.10,2013-04-16 14:41:00,
2013-04-16 10:56:00,47.4,44.0,30.18,SSW,202,4.0,8.0,88,0.00,,,0.00,weatherlink.com 1.10,2013-04-16 14:56:00,
2013-04-16 11:25:00,48.2,44.0,30.17,WSW,255,8.0,8.0,86,0.00,,,0.00,weatherlink.com 1.10,2013-04-16 15:25:00,
2013-04-16 11:40:00,48.6,44.0,30.16,SE,138,2.0,9.0,85,0.00,,,0.00,weatherlink.com 1.10,2013-04-16 15:40:00,
2013-04-16 11:55:00,48.7,44.0,30.16,SSW,196,3.0,6.0,85,0.00,,,0.00,weatherlink.com 1.10,2013-04-16 15:55:00,
2013-04-16 12:10:00,49.1,45.0,30.16,South,180,3.0,6.0,85,0.00,,,0.00,weatherlink.com 1.10,2013-04-16 16:10:00,
2013-04-16 12:25:00,50.4,46.0,30.14,SSW,199,6.0,16.0,84,0.00,,,0.00,weatherlink.com 1.10,2013-04-16 16:25:00,
2013-04-16 12:40:00,51.3,46.0,30.15,SW,230,4.0,14.0,82,0.00,,,0.00,weatherlink.com 1.10,2013-04-16 16:40:00,
2013-04-16 12:55:00,51.2,46.0,30.15,SSW,203,4.0,17.0,83,0.00,,,0.00,weatherlink.com 1.10,2013-04-16 16:55:00,
2013-04-16 13:10:00,51.4,46.0,30.14,SSW,194,7.0,15.0,83,0.00,,,0.00,weatherlink.com 1.10,2013-04-16 17:10:00,
2013-04-16 13:25:00,51.6,46.0,30.13,West,266,6.0,12.0,82,0.00,,,0.00,weatherlink.com 1.10,2013-04-16 17:25:00,
2013-04-16 13:40:00,51.6,47.0,30.13,SSW,196,8.0,10.0,84,0.00,,,0.00,weatherlink.com 1.10,2013-04-16 17:40:00,
2013-04-16 13:55:00,51.6,47.0,30.13,South,184,4.0,17.0,84,0.00,,,0.00,weatherlink.com 1.10,2013-04-16 17:55:00,
2013-04-16 14:10:00,51.7,47.0,30.14,SSE,165,10.0,19.0,85,0.00,,,0.00,weatherlink.com 1.10,2013-04-16 18:10:00,
2013-04-16 14:25:00,50.6,48.0,30.14,SSW,205,7.0,13.0,90,0.02,,,0.02,weatherlink.com 1.10,2013-04-16 18:25:00,
2013-04-16 14:40:00,49.8,48.0,30.12,SSE,148,2.0,10.0,93,0.05,,,0.05,weatherlink.com 1.10,2013-04-16 18:40:00,
2013-04-16 14:55:00,49.8,49.0,30.12,South,169,4.0,12.0,95,0.06,,,0.06,weatherlink.com 1.10,2013-04-16 18:55:00,
2013-04-16 15:10:00,50.0,49.0,30.11,SSE,162,8.0,9.0,95,0.12,,,0.12,weatherlink.com 1.10,2013-04-16 19:10:00,
2013-04-16 15:25:00,50.1,49.0,30.10,SE,128,1.0,6.0,96,0.11,,,0.13,weatherlink.com 1.10,2013-04-16 19:25:00,
2013-04-16 15:40:00,50.9,50.0,30.09,SSE,155,8.0,14.0,95,0.08,,,0.13,weatherlink.com 1.10,2013-04-16 19:40:00,
2013-04-16 15:55:00,51.4,50.0,30.07,SSW,206,6.0,14.0,95,0.07,,,0.13,weatherlink.com 1.10,2013-04-16 19:55:00,
2013-04-16 16:10:00,51.2,50.0,30.07,WSW,241,8.0,11.0,95,0.00,,,0.13,weatherlink.com 1.10,2013-04-16 20:10:00,
2013-04-16 16:25:00,51.4,50.0,30.06,SE,146,4.0,13.0,95,0.00,,,0.13,weatherlink.com 1.10,2013-04-16 20:25:00,
2013-04-16 16:41:00,51.1,50.0,30.05,SSW,192,8.0,14.0,95,0.00,,,0.13,weatherlink.com 1.10,2013-04-16 20:41:00,
2013-04-16 16:56:00,51.2,50.0,30.04,South,172,4.0,17.0,95,0.00,,,0.13,weatherlink.com 1.10,2013-04-16 20:56:00,
2013-04-16 17:11:00,51.5,50.0,30.03,SSE,165,8.0,12.0,95,0.00,,,0.13,weatherlink.com 1.10,2013-04-16 21:11:00,
2013-04-16 17:26:00,51.8,51.0,30.04,SE,144,2.0,12.0,95,0.00,,,0.13,weatherlink.com 1.10,2013-04-16 21:26:00,
2013-04-16 17:41:00,51.5,50.0,30.04,SSE,160,2.0,11.0,95,0.00,,,0.13,weatherlink.com 1.10,2013-04-16 21:41:00,
2013-04-16 17:56:00,51.2,50.0,30.04,South,178,2.0,4.0,95,0.00,,,0.13,weatherlink.com 1.10,2013-04-16 21:56:00,
2013-04-16 18:11:00,50.8,50.0,30.04,South,184,3.0,6.0,96,0.00,,,0.13,weatherlink.com 1.10,2013-04-16 22:11:00,
2013-04-16 18:26:00,50.6,50.0,30.03,South,180,6.0,8.0,96,0.00,,,0.13,weatherlink.com 1.10,2013-04-16 22:26:00,
2013-04-16 18:41:00,50.6,50.0,30.03,SSW,201,1.0,8.0,96,0.00,,,0.13,weatherlink.com 1.10,2013-04-16 22:41:00,
2013-04-16 18:56:00,50.6,50.0,30.03,South,186,0.0,5.0,96,0.00,,,0.13,weatherlink.com 1.10,2013-04-16 22:56:00,
2013-04-16 19:11:00,51.1,50.0,30.04,SW,219,3.0,6.0,97,0.00,,,0.13,weatherlink.com 1.10,2013-04-16 23:11:00,
2013-04-16 19:26:00,51.5,50.0,30.03,SSW,212,2.0,9.0,96,0.00,,,0.13,weatherlink.com 1.10,2013-04-16 23:26:00,
2013-04-16 19:56:00,50.8,50.0,30.02,SW,217,1.0,6.0,96,0.00,,,0.13,weatherlink.com 1.10,2013-04-16 23:56:00,
2013-04-16 20:26:00,51.5,50.0,30.03,South,180,4.0,5.0,96,0.00,,,0.13,weatherlink.com 1.10,2013-04-17 00:26:00,
2013-04-16 20:56:00,52.8,51.0,30.03,SE,144,2.0,9.0,94,0.00,,,0.13,weatherlink.com 1.10,2013-04-17 00:56:00,
2013-04-16 21:26:00,53.8,52.0,30.04,SW,221,2.0,8.0,92,0.00,,,0.13,weatherlink.com 1.10,2013-04-17 01:26:00,
2013-04-16 22:11:00,53.9,52.0,30.04,South,173,5.0,7.0,93,0.00,,,0.13,weatherlink.com 1.10,2013-04-17 02:11:00,
2013-04-16 22:26:00,54.6,52.0,30.05,WSW,244,5.0,7.0,92,0.00,,,0.13,weatherlink.com 1.10,2013-04-17 02:26:00,
2013-04-16 22:56:00,56.3,53.0,30.05,North,360,3.0,9.0,88,0.00,,,0.13,weatherlink.com 1.10,2013-04-17 02:56:00,
2013-04-16 23:11:00,56.2,53.0,30.05,NW,323,4.0,8.0,88,0.00,,,0.13,weatherlink.com 1.10,2013-04-17 03:11:00,
2013-04-16 23:26:00,54.6,52.0,30.06,NW,319,6.0,13.0,92,0.03,,,0.16,weatherlink.com 1.10,2013-04-17 03:26:00,
2013-04-16 23:41:00,52.9,51.0,30.06,NNE,21,8.0,12.0,94,0.05,,,0.18,weatherlink.com 1.10,2013-04-17 03:41:00,
2013-04-16 23:56:00,52.4,51.0,30.05,NNE,13,4.0,9.0,96,0.06,,,0.19,weatherlink.com 1.10,2013-04-17 03:56:00,